x

Potomac, Md (44042) Wave Buoy

11:00pm - Thu 21st Sep 2017 All times are EDT. -4 hours from GMT.

  • Sig Wave height 0.3ft
  • Wind
    11mph, 13mph gusts
  • Sea Temp 77°f
  • Air Temp 76°f
  • Sea Pressure 1016.3mb
  • Potomac, Md
  • Potomac, Md

More Historic Weather Station data

Upgrade to MSW Pro to gain access to the past 30 days of data for over 8000 Wavebouys and Weather Stations around the globe.

Join

Comparision Forecast

View Surf forecast
   
Thu 09/21 11:00pm 0.3ft  -  11 13 mph 1016.3mb 77f 76f
10:50pm 0.3ft  -  9 11 mph 1016.3mb - 77f
10:40pm  -   -  7 9 mph 1016.2mb - 77f
10:30pm  -   -  7 9 mph 1016.1mb - 77f
10:20pm  -   -  7 7 mph 1016.1mb - 77f
10:10pm 0.3ft  -  7 9 mph 1016mb - 78f
10:00pm 0.3ft  -  4 7 mph 1015.9mb 77f 78f
9:50pm 0.3ft  -  4 7 mph 1015.9mb - 78f
9:40pm  -   -  4 7 mph 1015.8mb - 78f
9:30pm  -   -  4 7 mph 1015.8mb - 78f
9:20pm  -   -  4 7 mph 1015.7mb - 79f
9:10pm  -   -  4 7 mph 1015.6mb - 79f
9:00pm  -   -  7 7 mph 1015.6mb 77f 79f
8:50pm  -   -  7 7 mph 1015.6mb - 79f
8:40pm  -   -  4 7 mph 1015.6mb - 79f
8:30pm  -   -  7 7 mph 1015.5mb - 78f
8:20pm  -   -  7 7 mph 1015.5mb - 79f
8:10pm 0.3ft  -  7 7 mph 1015.5mb - 79f
8:00pm 0.3ft  -  4 7 mph 1015.4mb 77f 78f
7:50pm 0.3ft  -  4 4 mph 1015.4mb - 78f
7:40pm  -   -  4 4 mph 1015.4mb - 79f
7:30pm  -   -  4 4 mph 1015.3mb - 79f
7:20pm  -   -  4 4 mph 1015.3mb - 79f
7:10pm 0.3ft  -  4 7 mph 1015.4mb - 80f
7:00pm 0.3ft  -  4 4 mph 1015.4mb 78f 80f
6:50pm 0.3ft  -  4 7 mph 1015.4mb - 80f
6:40pm  -   -  4 7 mph 1015.2mb - 81f
6:30pm  -   -  4 7 mph 1015.1mb - 81f
6:20pm  -   -  7 9 mph 1015.1mb - 81f
6:10pm 0.3ft  -  9 11 mph 1015.1mb - 81f
6:00pm 0.3ft  -  9 13 mph 1015.2mb 78f 82f
5:50pm 0.3ft  -  9 11 mph 1015.1mb - 82f
5:40pm  -   -  7 9 mph 1015.1mb - 82f
5:30pm  -   -  4 9 mph 1015.1mb - 82f
5:20pm  -   -   -  0 mph 1015.2mb - 84f
5:10pm 0.3ft  -   -  4 mph 1015.2mb - 82f
5:00pm 0.3ft  -   -  4 mph 1015.2mb 78f 81f
4:50pm  -   -   -  0 mph 1015.2mb - 81f
4:40pm  -   -  2 2 mph 1015.2mb - 80f
4:30pm  -   -  2 2 mph 1015.2mb - 80f
4:20pm  -   -   -  2 mph 1015.2mb - 80f
4:10pm 0.3ft  -   -  0 mph 1015.2mb - 80f
4:00pm 0.3ft  -   -  0 mph 1015.3mb 77f 80f
3:50pm 0.3ft  -   -  2 mph 1015.4mb - 79f
3:40pm  -   -   -  2 mph 1015.4mb - 79f
3:30pm  -   -   -  0 mph 1015.5mb - 79f
3:20pm  -   -   -  0 mph 1015.5mb - 79f
3:10pm 0.3ft  -   -  0 mph 1015.6mb - 79f
3:00pm 0.3ft  -   -  2 mph 1015.7mb 78f 79f
2:50pm 0.3ft  -  2 2 mph 1015.7mb - 79f
2:40pm  -   -  2 2 mph 1015.8mb - 78f
2:30pm  -   -  2 4 mph 1015.8mb - 78f
2:20pm  -   -  2 4 mph 1015.8mb - 78f
2:10pm 0.3ft  -   -  2 mph 1015.8mb - 78f
2:00pm 0.3ft  -   -  0 mph 1015.9mb 77f 78f
1:50pm 0.3ft  -   -  0 mph 1015.9mb - 78f
1:40pm  -   -   -  2 mph 1016mb - 77f
1:30pm  -   -  2 4 mph 1016mb - 77f
1:20pm  -   -  2 4 mph 1016.1mb - 77f
1:10pm  -   -  4 4 mph 1016.2mb - 76f
1:00pm  -   -  4 4 mph 1016.2mb 76f 76f
12:50pm  -   -  4 4 mph 1016.2mb - 76f
12:40pm  -   -  4 7 mph 1016.2mb - 76f
12:30pm  -   -  4 7 mph 1016.2mb - 76f
12:20pm  -   -  2 4 mph 1016.2mb - 76f
12:10pm 0.3ft  -  2 4 mph 1016.3mb - 76f
12:00pm 0.3ft  -  2 4 mph 1016.3mb 76f 76f
11:50am  -   -  4 4 mph 1016.3mb - 75f
11:40am  -   -  4 4 mph 1016.4mb - 75f
11:30am  -   -  4 4 mph 1016.4mb - 75f
11:20am  -   -  2 4 mph 1016.5mb - 75f
11:10am  -   -  4 4 mph 1016.6mb - 75f
11:00am  -   -  4 4 mph 1016.6mb 76f 75f
10:50am  -   -  4 7 mph 1016.5mb - 75f
10:40am  -   -  2 4 mph 1016.5mb - 76f
10:30am  -   -  2 4 mph 1016.5mb - 75f
10:20am  -   -  2 4 mph 1016.5mb - 75f
10:10am  -   -  4 7 mph 1016.7mb - 74f
10:00am  -   -  4 4 mph 1016.7mb 75f 74f
9:50am  -   -  4 7 mph 1016.7mb - 75f
9:40am  -   -  4 7 mph 1016.7mb - 76f
9:30am  -   -  7 11 mph 1016.7mb - 75f
9:20am  -   -  9 11 mph 1016.6mb - 75f
9:10am  -   -  11 11 mph 1016.5mb - 75f
9:00am  -   -  9 11 mph 1016.4mb 75f 75f
8:50am  -   -  9 11 mph 1016.3mb - 75f
8:40am  -   -  9 11 mph 1016.2mb - 75f
8:30am  -   -  9 11 mph 1016.2mb - 75f
8:20am  -   -  11 13 mph 1016.2mb - 75f
8:10am  -   -  11 13 mph 1016.2mb - 74f
8:00am  -   -  11 13 mph 1016.2mb 75f 74f
7:50am  -   -  11 13 mph 1016.2mb - 73f
7:40am  -   -  11 13 mph 1016.1mb - 73f
7:30am  -   -  11 13 mph 1016mb - 73f
7:20am  -   -  9 11 mph 1016mb - 72f
7:10am  -   -  9 13 mph 1015.9mb - 72f
7:00am  -   -  9 11 mph 1015.9mb 75f 71f
6:50am  -   -  9 11 mph 1015.7mb - 72f
6:40am  -   -  11 11 mph 1015.4mb - 72f
6:30am  -   -  9 11 mph 1015.3mb - 73f
6:20am  -   -  9 11 mph 1015.1mb - 73f
6:10am  -   -  9 11 mph 1015mb - 73f
6:00am  -   -  9 9 mph 1014.9mb 75f 73f
5:50am  -   -  7 9 mph 1014.9mb - 74f
5:40am  -   -  9 9 mph 1014.7mb - 74f
5:30am  -   -  9 11 mph 1014.6mb - 74f
5:20am  -   -  9 11 mph 1014.5mb - 74f
5:10am 0.3ft  -  9 11 mph 1014.4mb - 74f
5:00am 0.3ft  -  9 9 mph 1014.3mb 75f 74f
4:40am  -   -  9 9 mph 1014.1mb - 74f
4:30am  -   -  9 9 mph 1014mb - 74f
4:20am  -   -  9 9 mph 1014.1mb - 74f
4:10am 0.3ft  -  7 9 mph 1014.1mb - 74f
4:00am 0.3ft  -  7 9 mph 1014.1mb 75f 74f
3:50am 0.3ft  -  7 7 mph 1014mb - 74f
3:40am  -   -  4 7 mph 1014.1mb - 74f
3:30am  -   -  7 9 mph 1014.1mb - 74f
3:20am  -   -  7 9 mph 1014.1mb - 74f
3:10am  -   -  9 9 mph 1014.1mb - 74f
3:00am  -   -  7 9 mph 1014.1mb 75f 74f
2:50am  -   -  9 9 mph 1014.2mb - 74f
2:40am  -   -  9 9 mph 1014.2mb - 74f
2:30am  -   -  9 11 mph 1014.3mb - 74f
2:20am  -   -  7 9 mph 1014.4mb - 74f
2:10am 0.3ft  -  7 9 mph 1014.4mb - 74f
2:00am 0.3ft  -  9 11 mph 1014.4mb 75f 75f
1:50am 0.3ft  -  9 11 mph 1014.4mb - 75f
1:40am  -   -  9 11 mph 1014.4mb - 75f
1:30am  -   -  9 11 mph 1014.3mb - 75f
1:20am  -   -  9 9 mph 1014.3mb - 75f
1:10am 0.3ft  -  9 9 mph 1014.3mb - 75f
1:00am 0.3ft  -  7 9 mph 1014.2mb 75f 75f
12:50am  -   -  4 7 mph 1014.2mb - 75f
12:40am  -   -  4 7 mph 1014.2mb - 75f
12:30am  -   -  4 7 mph 1014.2mb - 75f
12:20am  -   -  4 7 mph 1014.3mb - 75f
12:10am  -   -  4 7 mph 1014.3mb - 75f
12:00am  -   -  4 4 mph 1014.2mb 75f 75f
Wed 09/20 11:50pm  -   -  2 4 mph 1014.2mb - 75f
11:40pm  -   -  2 2 mph 1014.2mb - 75f
11:30pm  -   -  2 2 mph 1014.2mb - 75f
11:20pm  -   -   -  2 mph 1014.2mb - 75f
11:10pm  -   -   -  2 mph 1014.3mb - 74f
11:00pm  -   -   -  2 mph 1014.2mb 75f 75f
10:50pm  -   -   -  2 mph 1014.1mb - 75f
10:40pm  -   -   -  2 mph 1014.1mb - 75f
10:30pm  -   -   -  2 mph 1014mb - 76f
10:20pm  -   -  2 2 mph 1013.9mb - 76f
10:10pm  -   -  2 2 mph 1013.8mb - 75f
10:00pm  -   -  2 2 mph 1013.8mb 75f 76f
9:50pm  -   -  2 4 mph 1013.7mb - 76f
9:40pm  -   -  2 4 mph 1013.6mb - 76f
9:30pm  -   -  4 4 mph 1013.6mb - 76f
9:20pm  -   -  4 4 mph 1013.5mb - 77f
9:10pm  -   -  4 4 mph 1013.4mb - 77f
9:00pm  -   -  4 4 mph 1013.3mb 75f 77f
8:50pm  -   -  4 7 mph 1013.3mb - 77f
8:40pm  -   -  4 7 mph 1013.3mb - 77f
8:30pm  -   -  4 4 mph 1013.2mb - 77f
8:20pm  -   -  4 4 mph 1013.1mb - 77f
8:10pm 0.3ft  -  4 7 mph 1013.1mb - 78f
8:00pm 0.3ft  -  7 7 mph 1013mb 75f 78f
7:50pm  -   -  7 7 mph 1012.9mb - 78f
7:40pm  -   -  7 7 mph 1012.8mb - 78f
7:30pm  -   -  4 7 mph 1012.8mb - 79f
7:20pm  -   -  4 7 mph 1012.7mb - 79f
7:10pm 0.7ft  -  4 7 mph 1012.6mb - 79f
7:00pm 0.7ft  -  4 7 mph 1012.6mb 75f 79f
6:50pm 0.7ft  -  7 9 mph 1012.5mb - 79f
6:40pm  -   -  7 9 mph 1012.4mb - 78f
6:30pm  -   -  7 9 mph 1012.3mb - 79f
6:20pm  -   -  9 11 mph 1012.3mb - 80f
6:10pm 1ft  -  9 11 mph 1012.2mb - 80f
6:00pm 1ft 2s 7 9 mph 1012.2mb 76f 80f
5:50pm 1ft  -  9 9 mph 1012.2mb - 80f
5:40pm  -   -  9 11 mph 1012.1mb - 80f
5:30pm  -   -  9 11 mph 1012.1mb - 80f
5:20pm  -   -  9 11 mph 1012mb - 80f
5:10pm 1ft  -  11 11 mph 1011.9mb - 80f
5:00pm 1ft 2s 11 11 mph 1011.8mb 76f 80f
4:50pm 1ft  -  11 11 mph 1011.8mb - 80f
4:40pm  -   -  11 11 mph 1011.9mb - 80f
4:30pm  -   -  11 11 mph 1011.9mb - 80f
4:20pm  -   -  11 11 mph 1011.9mb - 79f
4:10pm 0.7ft  -  9 11 mph 1012mb - 79f
4:00pm 0.7ft  -  9 11 mph 1012mb 76f 79f
3:50pm  -   -  9 11 mph 1012mb - 79f
3:40pm  -   -  11 13 mph 1012mb - 79f
3:30pm  -   -  11 13 mph 1012.1mb - 79f
3:20pm  -   -  11 13 mph 1012.1mb - 78f
3:10pm 1ft  -  11 13 mph 1012.2mb - 78f
3:00pm 1ft 2s 11 13 mph 1012.2mb 76f 78f
2:50pm 1ft  -  11 16 mph 1012.3mb - 78f
2:40pm  -   -  11 13 mph 1012.5mb - 78f
2:30pm  -   -  13 16 mph 1012.5mb - 78f
2:20pm  -   -  13 16 mph 1012.6mb - 78f
2:10pm 1ft  -  13 16 mph 1012.7mb - 77f
2:00pm 1ft 2s 13 16 mph 1012.8mb 75f 77f
1:50pm 1ft  -  13 16 mph 1012.9mb - 77f
1:40pm  -   -  13 16 mph 1012.9mb - 77f
1:30pm  -   -  13 16 mph 1012.9mb - 77f
1:20pm  -   -  13 16 mph 1013mb - 77f
1:10pm 1.6ft  -  13 18 mph 1013.1mb - 77f
1:00pm 1.6ft 3s 16 18 mph 1013.3mb 75f 76f
12:50pm  -   -  16 20 mph 1013.3mb - 76f
12:40pm  -   -  16 20 mph 1013.4mb - 76f
12:30pm  -   -  16 18 mph 1013.4mb - 75f
12:20pm  -   -  16 18 mph 1013.4mb - 75f
12:10pm 1.6ft  -  18 20 mph 1013.5mb - 75f
12:00pm 1.6ft 3s 16 20 mph 1013.5mb 75f 75f
11:50am 1.6ft  -  18 20 mph 1013.5mb - 75f
11:40am  -   -  18 22 mph 1013.5mb - 75f
11:30am  -   -  18 20 mph 1013.2mb - 75f
11:20am  -   -  18 20 mph 1013.2mb - 74f
11:10am 1.3ft  -  16 18 mph 1013.2mb - 74f
11:00am 1.3ft 3s 13 16 mph 1013.2mb 75f 75f
10:50am 1.3ft  -  13 16 mph 1013.2mb - 75f
10:40am  -   -  13 16 mph 1013.3mb - 75f
10:30am  -   -  13 16 mph 1013.4mb - 75f
10:20am  -   -  16 18 mph 1013.4mb - 75f
10:10am 1ft  -  13 16 mph 1013.4mb - 75f
10:00am 1ft 2s 16 18 mph 1013.3mb 75f 75f
9:50am  -   -  13 16 mph 1013.3mb - 75f
9:40am  -   -  13 16 mph 1013.4mb - 74f
9:30am  -   -  13 16 mph 1013.3mb - 74f
9:20am  -   -  13 16 mph 1013.3mb - 74f
9:10am 1ft  -  13 16 mph 1013.3mb - 74f
9:00am 1.3ft 2s 13 16 mph 1013.3mb 75f 74f
8:50am 1ft  -  13 16 mph 1013.2mb - 74f
8:40am  -   -  13 16 mph 1013.1mb - 74f
8:30am  -   -  13 18 mph 1013mb - 74f
8:20am  -   -  16 18 mph 1013mb - 74f
8:10am 1.3ft  -  16 18 mph 1012.9mb - 73f
8:00am 1.3ft 2s 13 18 mph 1012.7mb 75f 73f
7:50am 1.3ft  -  13 18 mph 1012.6mb - 74f
7:40am  -   -  16 18 mph 1012.5mb - 73f
7:30am  -   -  13 18 mph 1012.4mb - 73f
7:20am  -   -  16 18 mph 1012.2mb - 73f
7:10am 1.3ft  -  16 18 mph 1012.1mb - 73f
7:00am 1.3ft 2s 16 18 mph 1012mb 75f 73f
6:50am 1.3ft  -  16 18 mph 1011.9mb - 73f
6:40am  -   -  13 18 mph 1011.8mb - 73f
6:30am  -   -  16 18 mph 1011.6mb - 73f
6:20am  -   -  16 18 mph 1011.6mb - 73f
6:10am 1.3ft  -  13 18 mph 1011.5mb - 73f
6:00am 1.3ft 3s 16 18 mph 1011.5mb 75f 73f
5:50am 1.3ft  -  16 18 mph 1011.3mb - 73f
5:40am  -   -  16 18 mph 1011.1mb - 73f
5:30am  -   -  16 18 mph 1011.1mb - 73f
5:20am  -   -  16 18 mph 1011mb - 72f
5:10am 1.3ft  -  16 18 mph 1011mb - 72f
5:00am 1.3ft 2s 13 16 mph 1010.8mb 75f 73f
4:50am 1.3ft  -  16 18 mph 1010.8mb - 73f
4:40am  -   -  16 18 mph 1010.7mb - 73f
4:30am  -   -  16 20 mph 1010.8mb - 73f
4:20am  -   -  16 18 mph 1010.8mb - 73f
4:10am 1.3ft  -  16 18 mph 1010.8mb - 73f
4:00am 1.3ft 3s 13 18 mph 1010.8mb 75f 74f
3:50am 1.3ft  -  11 13 mph 1010.8mb - 74f
3:40am  -   -  11 13 mph 1010.8mb - 73f
3:30am  -   -  11 13 mph 1010.8mb - 74f
3:20am  -   -  11 16 mph 1010.9mb - 74f
3:10am 1.3ft  -  13 16 mph 1010.9mb - 74f
3:00am 1.3ft 2s 13 16 mph 1010.7mb 75f 74f
2:50am 1.3ft  -  13 16 mph 1010.7mb - 74f
2:40am  -   -  13 16 mph 1010.6mb - 74f
2:30am  -   -  13 16 mph 1010.7mb - 74f
2:20am  -   -  13 16 mph 1010.8mb - 74f
2:10am 0.7ft  -  11 16 mph 1010.9mb - 74f
2:00am 1ft 2s 11 13 mph 1011mb 75f 74f
1:50am 0.7ft  -  11 13 mph 1011mb - 74f
1:40am  -   -  11 13 mph 1011.1mb - 74f
1:30am  -   -  11 16 mph 1011mb - 74f
1:20am  -   -  11 16 mph 1011mb - 74f
1:10am 0.7ft  -  13 13 mph 1011mb - 74f
1:00am 0.7ft  -  13 16 mph 1010.9mb 75f 75f
12:50am 0.7ft  -  13 16 mph 1010.8mb - 74f
12:40am  -   -  11 13 mph 1010.8mb - 74f
12:30am  -   -  11 13 mph 1010.8mb - 73f
12:20am  -   -  11 13 mph 1010.8mb - 73f
12:10am 0.7ft  -  11 13 mph 1010.8mb - 73f
12:00am 0.7ft  -  13 16 mph 1010.8mb 75f 73f
Tue 09/19 11:50pm  -   -  11 16 mph 1010.9mb - 73f
11:40pm  -   -  11 13 mph 1011mb - 73f
11:30pm  -   -  11 13 mph 1011.1mb - 73f
11:20pm  -   -  9 11 mph 1011.2mb - 73f
11:10pm 1.3ft  -  9 13 mph 1011.2mb - 73f
11:00pm 1.3ft 2s 9 13 mph 1011.2mb 75f 72f
10:50pm 1.3ft  -  16 22 mph 1011.3mb - 73f
10:40pm  -   -  22 27 mph 1011.3mb - 74f
10:30pm  -   -  22 29 mph 1011.4mb - 75f
10:20pm  -   -  18 27 mph 1011.4mb - 75f
10:10pm 0.3ft  -  11 22 mph 1011.5mb - 74f
10:00pm 0.7ft  -  9 11 mph 1011.5mb 75f 74f
9:50pm 0.3ft  -  11 11 mph 1011.3mb - 74f
9:40pm  -   -  9 11 mph 1011.2mb - 74f
9:30pm  -   -  11 13 mph 1011.1mb - 74f
9:20pm  -   -  11 16 mph 1011.1mb - 74f
9:10pm 0.3ft  -  11 16 mph 1011.2mb - 74f
9:00pm 0.3ft  -  11 13 mph 1011mb 75f 74f
8:50pm 0.3ft  -  11 16 mph 1010.8mb - 74f
8:40pm  -   -  11 13 mph 1010.8mb - 74f
8:30pm  -   -  11 16 mph 1010.8mb - 73f
8:20pm  -   -  13 16 mph 1010.9mb - 73f
8:10pm 0.3ft  -  13 16 mph 1010.9mb - 73f
8:00pm 0.3ft  -  13 18 mph 1010.9mb 75f 73f
7:50pm 0.3ft  -  11 13 mph 1010.8mb - 72f
7:40pm  -   -  7 9 mph 1010.7mb - 72f
7:30pm  -   -  9 13 mph 1010.9mb - 72f
7:20pm  -   -  11 16 mph 1010.8mb - 72f
7:10pm 0.3ft  -  9 11 mph 1010.7mb - 72f
7:00pm 0.3ft  -  9 13 mph 1010.9mb 75f 72f
6:50pm 0.3ft  -  13 18 mph 1011.1mb - 72f
6:40pm  -   -  11 16 mph 1011.2mb - 72f
6:30pm  -   -  11 16 mph 1011mb - 72f
6:20pm  -   -  16 20 mph 1011mb - 73f
6:10pm 0.7ft  -  16 22 mph 1011.2mb - 73f
6:00pm 0.7ft  -  11 20 mph 1011.1mb 75f 74f
5:50pm 0.7ft  -  11 16 mph 1011mb - 74f
5:40pm  -   -  13 18 mph 1010.9mb - 75f
5:30pm  -   -  13 18 mph 1010.8mb - 76f
5:20pm  -   -  11 18 mph 1010.8mb - 76f
5:10pm 1ft  -  11 13 mph 1010.7mb - 76f
5:00pm 1ft 2s 11 16 mph 1010.6mb 75f 76f
4:50pm 1ft  -  13 18 mph 1010.6mb - 76f
4:40pm  -   -  11 13 mph 1010.6mb - 76f
4:30pm  -   -  16 22 mph 1010.6mb - 75f
4:20pm  -   -  16 22 mph 1010.7mb - 76f
4:10pm 1.3ft  -  16 20 mph 1010.7mb - 76f
4:00pm 1.3ft 2s 16 27 mph 1010.7mb 75f 76f
3:50pm 1.3ft  -  18 22 mph 1010.7mb - 77f
3:40pm  -   -  20 27 mph 1010.7mb - 77f
3:30pm  -   -  22 31 mph 1010.7mb - 77f
3:20pm  -   -  22 29 mph 1010.6mb - 77f
3:10pm 1.3ft  -  20 27 mph 1010.8mb - 77f
3:00pm 1.3ft 2s 20 25 mph 1010.8mb 75f 77f
2:50pm 1.3ft  -  20 29 mph 1011mb - 76f
2:40pm  -   -  20 25 mph 1011mb - 76f
2:30pm  -   -  18 27 mph 1011.2mb - 75f
2:20pm  -   -  13 18 mph 1011.3mb - 74f
2:10pm 1.3ft  -  20 25 mph 1011.4mb - 74f
2:00pm 1.3ft 3s 18 22 mph 1011.4mb 75f 75f
1:50pm 1.3ft  -  18 22 mph 1011.5mb - 75f
1:40pm  -   -  18 22 mph 1011.5mb - 75f
1:30pm  -   -  18 22 mph 1011.6mb - 76f
1:20pm  -   -  18 25 mph 1011.7mb - 75f
1:10pm 1.3ft  -  18 27 mph 1011.9mb - 75f
1:00pm 1.3ft 3s 18 22 mph 1012mb 75f 75f
12:50pm 1.3ft  -  18 22 mph 1011.9mb - 75f
12:40pm  -   -  16 22 mph 1012mb - 75f
12:30pm  -   -  18 22 mph 1011.9mb - 76f
12:20pm  -   -  18 25 mph 1011.9mb - 76f
12:10pm 1.3ft  -  18 22 mph 1012.1mb - 75f
12:00pm 1.3ft 3s 18 25 mph 1012.2mb 75f 75f
11:50am  -   -  18 22 mph 1012.3mb - 75f
11:40am  -   -  18 25 mph 1012.3mb - 75f
11:30am  -   -  18 22 mph 1012.3mb - 75f
11:20am  -   -  18 25 mph 1012.4mb - 75f
11:10am 1.3ft  -  20 27 mph 1012.4mb - 75f
11:00am 1.3ft 2s 20 25 mph 1012.4mb 75f 75f
10:50am 1.3ft  -  18 25 mph 1012.4mb - 75f
10:40am  -   -  16 22 mph 1012.5mb - 74f
10:30am  -   -  16 22 mph 1012.5mb - 74f
10:20am  -   -  16 22 mph 1012.6mb - 74f
10:10am 1.3ft  -  18 25 mph 1012.6mb - 74f
10:00am 1.3ft 2s 18 25 mph 1012.6mb 75f 74f
9:50am 1.3ft  -  20 25 mph 1012.6mb - 74f
9:40am  -   -  20 25 mph 1012.6mb - 74f
9:30am  -   -  18 27 mph 1012.5mb - 74f
9:20am  -   -  18 25 mph 1012.6mb - 74f
9:10am 1.3ft  -  20 29 mph 1012.6mb - 73f
9:00am 1.3ft 2s 20 27 mph 1012.6mb 75f 74f
8:50am 1.3ft  -  20 27 mph 1012.4mb - 74f
8:40am  -   -  20 25 mph 1012.4mb - 74f
8:30am  -   -  20 27 mph 1012.5mb - 73f
8:20am  -   -  20 27 mph 1012.6mb - 73f
8:10am 1ft  -  18 27 mph 1012.6mb - 73f
8:00am 1.3ft 2s 20 27 mph 1012.6mb 75f 73f
7:50am 1ft  -  20 25 mph 1012.6mb - 73f
7:40am  -   -  18 27 mph 1012.7mb - 73f
7:30am  -   -  20 25 mph 1012.7mb - 72f
7:20am  -   -  18 25 mph 1012.6mb - 72f
7:10am 1ft  -  18 25 mph 1012.6mb - 72f
7:00am 1ft 2s 18 25 mph 1012.6mb 75f 72f
6:50am 1ft  -  18 25 mph 1012.7mb - 72f
6:40am  -   -  20 27 mph 1012.7mb - 72f
6:30am  -   -  18 22 mph 1012.5mb - 72f
6:20am  -   -  18 25 mph 1012.4mb - 72f
6:10am 1ft  -  18 25 mph 1012.4mb - 72f
6:00am 1ft 2s 18 25 mph 1012.5mb 75f 73f
5:50am 1ft  -  18 25 mph 1012.4mb - 72f
5:40am  -   -  18 22 mph 1012.3mb - 73f
5:30am  -   -  18 25 mph 1012.3mb - 72f
5:20am  -   -  18 22 mph 1012.2mb - 73f
5:10am 0.7ft  -  18 22 mph 1012.3mb - 72f
5:00am 0.7ft  -  18 25 mph 1012.3mb 75f 72f
4:50am 0.7ft  -  18 25 mph 1012.3mb - 72f
4:40am  -   -  18 22 mph 1012.3mb - 72f
4:30am  -   -  18 25 mph 1012.3mb - 72f
4:20am  -   -  18 22 mph 1012.2mb - 72f
4:10am 0.7ft  -  18 22 mph 1012.4mb - 72f
4:00am 0.7ft  -  18 22 mph 1012.5mb 76f 72f
3:50am 0.7ft  -  16 20 mph 1012.6mb - 73f
3:40am  -   -  18 22 mph 1012.7mb - 72f
3:30am  -   -  18 22 mph 1012.8mb - 72f
3:20am  -   -  18 22 mph 1012.9mb - 72f
3:10am 1ft  -  18 25 mph 1013mb - 73f
3:00am 1ft 2s 18 22 mph 1013mb 76f 73f
2:50am 1ft  -  20 25 mph 1013.2mb - 73f
2:40am  -   -  18 22 mph 1013.3mb - 73f
2:30am  -   -  18 22 mph 1013.5mb - 73f
2:20am  -   -  20 22 mph 1013.5mb - 73f
2:10am 1ft  -  18 22 mph 1013.4mb - 73f
2:00am 1ft 2s 20 25 mph 1013.4mb 76f 73f
1:50am 1ft  -  20 25 mph 1013.5mb - 73f
1:40am  -   -  20 25 mph 1013.4mb - 73f
1:30am  -   -  20 25 mph 1013.4mb - 73f
1:20am  -   -  20 22 mph 1013.5mb - 73f
1:10am 1ft  -  20 25 mph 1013.7mb - 73f
1:00am 1.3ft 2s 18 25 mph 1013.8mb 76f 73f
12:50am 1ft  -  20 25 mph 1013.8mb - 73f
12:40am  -   -  20 25 mph 1013.9mb - 73f
12:30am  -   -  20 25 mph 1014.1mb - 73f
12:20am  -   -  18 25 mph 1014.3mb - 73f
12:10am 1.3ft  -  18 25 mph 1014.4mb - 73f
12:00am 1.3ft 2s 20 25 mph 1014.5mb 76f 73f
Mon 09/18 11:50pm 1.3ft  -  20 27 mph 1014.5mb - 73f
11:40pm  -   -  20 22 mph 1014.6mb - 73f
11:30pm  -   -  18 22 mph 1014.6mb - 73f
11:20pm  -   -  18 22 mph 1014.7mb - 73f
11:10pm 1ft  -  18 25 mph 1014.7mb - 73f
11:00pm 1ft 2s 16 20 mph 1014.8mb 76f 73f
10:50pm 1ft  -  18 22 mph 1014.9mb - 73f
10:40pm  -   -  16 20 mph 1015.2mb - 74f
10:30pm  -   -  16 20 mph 1015.2mb - 74f
10:20pm  -   -  16 22 mph 1015.1mb - 74f
10:10pm 1ft  -  16 20 mph 1015.2mb - 74f
10:00pm 1.3ft 2s 16 20 mph 1015.3mb 75f 74f
9:50pm 1ft  -  16 18 mph 1015.3mb - 74f
9:40pm  -   -  16 20 mph 1015.3mb - 74f
9:30pm  -   -  16 20 mph 1015.4mb - 74f
9:20pm  -   -  13 18 mph 1015.5mb - 74f
9:10pm 1.3ft  -  16 20 mph 1015.5mb - 74f
9:00pm 1.3ft 2s 16 20 mph 1015.5mb 75f 75f
8:50pm  -   -  18 22 mph 1015.5mb - 75f
8:40pm  -   -  16 20 mph 1015.4mb - 75f
8:30pm  -   -  16 20 mph 1015.4mb - 75f
8:20pm  -   -  16 20 mph 1015.3mb - 75f
8:10pm 1ft  -  16 20 mph 1015.2mb - 75f
8:00pm 1ft 2s 18 20 mph 1015.1mb 76f 76f
7:50pm 1ft  -  16 20 mph 1015mb - 76f
7:40pm  -   -  16 20 mph 1015mb - 76f
7:30pm  -   -  16 20 mph 1015mb - 76f
7:20pm  -   -  16 20 mph 1015mb - 76f
7:10pm 0.7ft  -  16 20 mph 1015mb - 76f
7:00pm 0.7ft  -  18 22 mph 1014.9mb 76f 76f
6:50pm 0.7ft  -  18 20 mph 1014.9mb - 76f
6:40pm  -   -  16 20 mph 1014.9mb - 76f
6:30pm  -   -  16 18 mph 1015mb - 76f
6:20pm  -   -  16 18 mph 1014.9mb - 76f
6:10pm  -   -  16 22 mph 1014.8mb - 76f
6:00pm  -   -  18 22 mph 1014.8mb 76f 76f
5:50pm  -   -  18 22 mph 1014.8mb - 75f
5:40pm  -   -  16 20 mph 1014.9mb - 75f
5:30pm  -   -  16 20 mph 1014.9mb - 75f
5:20pm  -   -  16 20 mph 1015mb - 75f
5:10pm 0.7ft  -  16 20 mph 1015mb - 75f
5:00pm 0.7ft  -  16 20 mph 1015mb 76f 75f
4:50pm 0.7ft  -  16 20 mph 1014.9mb - 76f
4:40pm  -   -  18 20 mph 1014.8mb - 76f
4:30pm  -   -  18 20 mph 1014.8mb - 76f
4:20pm  -   -  13 20 mph 1015mb - 76f
4:10pm  -   -  16 20 mph 1015.1mb - 76f
4:00pm  -   -  13 18 mph 1015.2mb 76f 76f
3:50pm  -   -  16 18 mph 1015.1mb - 76f
3:40pm  -   -  13 18 mph 1015.2mb - 76f
3:30pm  -   -  16 20 mph 1015.2mb - 76f
3:20pm  -   -  16 20 mph 1015.2mb - 76f
3:10pm 0.3ft  -  16 20 mph 1015.2mb - 76f
3:00pm 0.3ft  -  16 20 mph 1015.3mb 76f 76f
2:50pm  -   -  13 18 mph 1015.5mb - 76f
2:40pm  -   -  13 16 mph 1015.6mb - 76f
2:30pm  -   -  13 18 mph 1015.6mb - 76f
2:20pm  -   -  13 18 mph 1015.7mb - 76f
2:10pm 0.7ft  -  11 16 mph 1015.7mb - 76f
2:00pm 0.7ft  -  13 18 mph 1015.7mb 76f 76f
1:50pm 0.7ft  -  13 16 mph 1015.8mb - 76f
1:40pm  -   -  13 16 mph 1016mb - 75f
1:30pm  -   -  13 18 mph 1016.1mb - 75f
1:20pm  -   -  13 18 mph 1016.2mb - 74f
1:10pm 1ft  -  16 20 mph 1016.2mb - 74f
1:00pm 1ft 2s 13 20 mph 1016.2mb 76f 74f
12:50pm 1ft  -  16 18 mph 1016.3mb - 74f
12:40pm  -   -  16 20 mph 1016.5mb - 74f
12:30pm  -   -  16 20 mph 1016.5mb - 74f
12:20pm  -   -  16 20 mph 1016.5mb - 74f
12:10pm 1ft  -  16 18 mph 1016.6mb - 74f
12:00pm 1ft 2s 16 18 mph 1016.5mb 76f 74f
11:50am  -   -  16 20 mph 1016.6mb - 74f
11:40am  -   -  16 20 mph 1016.7mb - 73f
11:30am  -   -  16 18 mph 1016.8mb - 73f
11:20am  -   -  13 18 mph 1017mb - 73f
11:10am 1ft  -  13 18 mph 1017mb - 73f
11:00am 1ft 2s 16 18 mph 1017mb 76f 72f
10:50am 1ft  -  16 20 mph 1017.1mb - 72f
10:40am  -   -  16 20 mph 1017mb - 72f
10:30am  -   -  16 20 mph 1017mb - 72f
10:20am  -   -  16 20 mph 1017.1mb - 72f
10:10am 1ft  -  16 20 mph 1017.2mb - 71f
10:00am 1ft 2s 16 18 mph 1017.2mb 75f 72f
9:50am 1ft  -  16 20 mph 1017.1mb - 71f
9:40am  -   -  16 20 mph 1017mb - 71f
9:30am  -   -  16 20 mph 1017mb - 71f
9:20am  -   -  16 20 mph 1016.9mb - 72f
9:10am 0.7ft  -  16 20 mph 1016.9mb - 72f
9:00am 1ft 2s 16 20 mph 1016.9mb 75f 72f
8:50am  -   -  16 18 mph 1016.8mb - 72f
8:40am  -   -  16 20 mph 1016.7mb - 71f
8:30am  -   -  18 20 mph 1016.8mb - 71f
8:20am  -   -  18 20 mph 1016.8mb - 71f
8:10am 0.7ft  -  18 20 mph 1016.9mb - 71f
8:00am 0.7ft  -  18 20 mph 1016.9mb 76f 71f
7:50am 0.7ft  -  16 20 mph 1017mb - 71f
7:40am  -   -  16 20 mph 1016.9mb - 71f
7:30am  -   -  16 18 mph 1016.9mb - 72f
7:20am  -   -  16 18 mph 1016.8mb - 72f
7:10am 0.7ft  -  16 18 mph 1016.7mb - 72f
7:00am 0.7ft  -  16 20 mph 1016.6mb 76f 72f
6:50am 0.7ft  -  16 18 mph 1016.6mb - 72f
6:40am  -   -  16 20 mph 1016.5mb - 72f
6:30am  -   -  16 18 mph 1016.4mb - 72f
6:20am  -   -  16 18 mph 1016.3mb - 72f
6:10am  -   -  16 18 mph 1016.4mb - 72f
6:00am  -   -  16 18 mph 1016.4mb 76f 72f
5:50am  -   -  16 18 mph 1016.2mb - 72f
5:40am  -   -  13 18 mph 1016mb - 72f
5:30am  -   -  13 16 mph 1016mb - 72f
5:20am  -   -  13 16 mph 1016.1mb - 72f
5:10am  -   -  13 16 mph 1016.1mb - 72f
4:50am  -   -  13 16 mph 1016.3mb - 72f
4:40am  -   -  13 16 mph 1016.3mb - 72f
4:30am  -   -  13 16 mph 1016.3mb - 72f
4:20am  -   -  13 16 mph 1016.4mb - 72f
4:10am 0.3ft  -  13 16 mph 1016.4mb - 72f